createdAt,value
2017-11-26T00:01:23.540Z,4.73
2017-11-26T00:03:52.379Z,4.60
2017-11-26T00:06:21.251Z,4.37
2017-11-26T00:08:50.087Z,4.60
2017-11-26T00:11:18.931Z,4.83
2017-11-26T00:13:47.811Z,5.37
2017-11-26T00:16:16.704Z,5.17
2017-11-26T00:18:45.576Z,5.47
2017-11-26T00:21:14.428Z,5.20
2017-11-26T00:23:43.298Z,5.07
2017-11-26T00:26:12.196Z,5.20
2017-11-26T00:28:41.071Z,6.07
2017-11-26T00:31:09.930Z,5.40
2017-11-26T00:33:38.792Z,5.07
2017-11-26T00:36:07.652Z,6.13
2017-11-26T00:38:36.531Z,5.40
2017-11-26T00:41:05.372Z,5.80
2017-11-26T00:43:34.260Z,5.23
2017-11-26T00:46:03.115Z,4.90
2017-11-26T00:48:31.968Z,5.20
2017-11-26T00:51:00.841Z,4.77
2017-11-26T00:53:29.679Z,4.90
2017-11-26T00:55:58.544Z,5.73
2017-11-26T00:58:27.508Z,4.43
2017-11-26T01:00:56.415Z,5.40
2017-11-26T01:03:25.908Z,5.87
2017-11-26T01:05:54.751Z,5.20
2017-11-26T01:08:23.621Z,5.50
2017-11-26T01:10:52.512Z,4.70
2017-11-26T01:13:21.371Z,5.50
2017-11-26T01:15:50.228Z,5.33
2017-11-26T01:18:19.112Z,5.57
2017-11-26T01:20:47.951Z,5.80
2017-11-26T01:23:16.837Z,6.07
2017-11-26T01:25:45.696Z,5.73
2017-11-26T01:28:14.587Z,6.33
2017-11-26T01:30:43.431Z,6.00
2017-11-26T01:33:12.284Z,6.40
2017-11-26T01:35:41.147Z,7.13
2017-11-26T01:38:10.005Z,7.30
2017-11-26T01:40:38.901Z,7.33
2017-11-26T01:43:07.761Z,6.83
2017-11-26T01:45:36.623Z,5.87
2017-11-26T01:48:05.463Z,6.67
2017-11-26T01:50:34.329Z,6.47
2017-11-26T01:53:03.192Z,6.07
2017-11-26T01:55:32.067Z,7.47
2017-11-26T01:58:00.945Z,6.57
2017-11-26T02:00:29.808Z,6.37
2017-11-26T02:02:58.691Z,7.83
2017-11-26T02:05:27.542Z,7.07
2017-11-26T02:07:56.427Z,7.03
2017-11-26T02:10:25.282Z,7.33
2017-11-26T02:12:54.140Z,7.70
2017-11-26T02:15:23.011Z,7.53
2017-11-26T02:17:51.867Z,8.27
2017-11-26T02:20:20.728Z,7.03
2017-11-26T02:22:49.581Z,8.60
2017-11-26T02:25:18.451Z,7.03
2017-11-26T02:27:47.297Z,7.00
2017-11-26T02:30:16.207Z,7.50
2017-11-26T02:33:00.029Z,7.97
2017-11-26T02:35:32.641Z,7.73
2017-11-26T02:38:01.496Z,7.47
2017-11-26T02:40:30.360Z,6.93
2017-11-26T02:42:59.259Z,8.17
2017-11-26T02:45:28.111Z,7.33
2017-11-26T02:47:56.984Z,6.77
2017-11-26T02:50:25.835Z,6.87
2017-11-26T02:52:54.706Z,7.30
2017-11-26T02:55:23.556Z,7.60
2017-11-26T02:57:52.550Z,8.00
2017-11-26T03:00:21.403Z,7.30
2017-11-26T03:02:50.287Z,6.80
2017-11-26T03:05:19.156Z,8.43
2017-11-26T03:07:48.003Z,6.57
2017-11-26T03:10:16.859Z,7.13
2017-11-26T03:12:45.723Z,6.93
2017-11-26T03:15:14.593Z,5.97
2017-11-26T03:17:43.455Z,7.90
2017-11-26T03:20:12.369Z,7.00
2017-11-26T03:22:41.220Z,6.60
2017-11-26T03:25:10.061Z,7.33
2017-11-26T03:27:38.920Z,6.30
2017-11-26T03:30:07.769Z,7.43
2017-11-26T03:32:36.647Z,7.20
2017-11-26T03:35:05.496Z,7.23
2017-11-26T03:37:34.377Z,7.60
2017-11-26T03:40:03.237Z,7.83
2017-11-26T03:42:32.143Z,6.87
2017-11-26T03:45:01.012Z,7.67
2017-11-26T03:47:29.868Z,7.93
2017-11-26T03:49:58.766Z,8.60
2017-11-26T03:52:27.617Z,9.37
2017-11-26T03:54:56.476Z,8.00
2017-11-26T03:57:25.330Z,9.53
2017-11-26T03:59:54.202Z,8.70
2017-11-26T04:02:23.591Z,8.20
2017-11-26T04:04:52.477Z,9.77
2017-11-26T04:07:21.349Z,9.93
2017-11-26T04:09:50.284Z,9.80
2017-11-26T04:12:19.162Z,10.40
2017-11-26T04:14:48.015Z,9.40
2017-11-26T04:17:16.880Z,9.47
2017-11-26T04:19:45.733Z,10.30
2017-11-26T04:22:14.616Z,10.83
2017-11-26T04:24:43.477Z,11.37
2017-11-26T04:27:12.371Z,10.40
2017-11-26T04:29:41.231Z,10.80
2017-11-26T04:32:10.086Z,10.47
2017-11-26T04:34:38.974Z,10.90
2017-11-26T04:37:07.837Z,11.03
2017-11-26T04:39:36.700Z,10.70
2017-11-26T04:42:05.559Z,10.33
2017-11-26T04:44:34.423Z,9.33
2017-11-26T04:47:03.281Z,9.50
2017-11-26T04:49:32.160Z,10.00
2017-11-26T04:52:01.014Z,10.47
2017-11-26T04:54:29.887Z,10.40
2017-11-26T04:56:58.735Z,8.57
2017-11-26T04:59:27.655Z,9.30
2017-11-26T05:01:56.515Z,8.83
2017-11-26T05:04:25.400Z,8.40
2017-11-26T05:06:54.253Z,9.00
2017-11-26T05:09:23.107Z,8.47
2017-11-26T05:11:51.967Z,9.00
2017-11-26T05:14:20.820Z,7.57
2017-11-26T05:16:49.692Z,7.90
2017-11-26T05:19:18.555Z,7.60
2017-11-26T05:21:47.424Z,6.63
2017-11-26T05:24:16.275Z,6.70
2017-11-26T05:26:45.147Z,6.67
2017-11-26T05:29:13.992Z,6.37
2017-11-26T05:31:42.977Z,5.87
2017-11-26T05:34:11.863Z,5.40
2017-11-26T05:36:40.707Z,5.93
2017-11-26T05:39:09.589Z,5.40
2017-11-26T05:41:38.442Z,4.70
2017-11-26T05:44:07.306Z,5.40
2017-11-26T05:46:36.166Z,4.50
2017-11-26T05:49:05.031Z,5.10
2017-11-26T05:51:33.912Z,5.47
2017-11-26T05:54:02.791Z,6.23
2017-11-26T05:56:31.632Z,5.07
2017-11-26T05:59:00.487Z,5.57
2017-11-26T06:01:29.343Z,4.90
2017-11-26T06:03:58.191Z,4.53
2017-11-26T06:06:27.058Z,5.23
2017-11-26T06:08:55.905Z,4.73
2017-11-26T06:11:24.779Z,3.90
2017-11-26T06:13:53.635Z,4.17
2017-11-26T06:16:22.508Z,4.30
2017-11-26T06:18:51.364Z,4.10
2017-11-26T06:21:20.240Z,4.10
2017-11-26T06:23:49.087Z,3.53
2017-11-26T06:26:17.954Z,4.23
2017-11-26T06:28:46.811Z,4.40
2017-11-26T06:31:15.758Z,4.60
2017-11-26T06:33:44.619Z,3.63
2017-11-26T06:36:13.464Z,3.90
2017-11-26T06:38:42.323Z,4.50
2017-11-26T06:41:11.227Z,4.10
2017-11-26T06:43:40.108Z,4.97
2017-11-26T06:46:08.968Z,4.33
2017-11-26T06:48:37.830Z,4.73
2017-11-26T06:51:06.687Z,3.93
2017-11-26T06:53:35.531Z,4.40
2017-11-26T06:56:04.396Z,4.87
2017-11-26T06:58:33.251Z,4.30
2017-11-26T07:01:02.118Z,4.80
2017-11-26T07:03:30.959Z,4.67
2017-11-26T07:06:00.000Z,4.60
2017-11-26T07:08:28.840Z,4.50
2017-11-26T07:10:57.688Z,3.63
2017-11-26T07:13:26.547Z,4.20
2017-11-26T07:15:55.401Z,3.50
2017-11-26T07:18:24.267Z,3.20
2017-11-26T07:20:53.144Z,2.90
2017-11-26T07:23:22.055Z,3.30
2017-11-26T07:25:50.905Z,3.37
2017-11-26T07:28:19.768Z,3.13
2017-11-26T07:30:48.698Z,2.80
2017-11-26T07:33:17.583Z,2.60
2017-11-26T07:35:46.443Z,2.40
2017-11-26T07:38:15.312Z,3.20
2017-11-26T07:40:44.185Z,2.67
2017-11-26T07:43:13.032Z,2.97
2017-11-26T07:45:41.895Z,2.77
2017-11-26T07:48:10.747Z,2.40
2017-11-26T07:50:39.613Z,2.30
2017-11-26T07:53:08.455Z,2.40
2017-11-26T07:55:37.347Z,3.63
2017-11-26T07:58:06.194Z,1.83
2017-11-26T08:00:35.043Z,2.20
2017-11-26T08:03:03.905Z,2.50
2017-11-26T08:05:32.756Z,2.60
2017-11-26T08:08:01.617Z,2.13
2017-11-26T08:10:30.467Z,1.77
2017-11-26T08:12:59.361Z,1.83
2017-11-26T08:15:28.217Z,2.03
2017-11-26T08:17:57.064Z,1.60
2017-11-26T08:20:25.927Z,2.57
2017-11-26T08:22:54.779Z,2.10
2017-11-26T08:25:23.635Z,2.60
2017-11-26T08:27:52.483Z,2.70
2017-11-26T08:30:21.371Z,2.07
2017-11-26T08:32:50.220Z,2.23
2017-11-26T08:35:19.098Z,2.23
2017-11-26T08:37:47.957Z,2.10
2017-11-26T08:40:16.804Z,2.57
2017-11-26T08:42:45.672Z,2.10
2017-11-26T08:45:14.523Z,2.57
2017-11-26T08:47:43.383Z,2.40
2017-11-26T08:50:12.271Z,3.13
2017-11-26T08:52:41.151Z,2.73
2017-11-26T08:55:10.024Z,2.50
2017-11-26T08:57:38.904Z,2.30
2017-11-26T09:00:07.759Z,2.07
2017-11-26T09:02:36.665Z,2.50
2017-11-26T09:05:05.559Z,3.10
2017-11-26T09:07:35.229Z,2.93
2017-11-26T09:10:04.106Z,2.97
2017-11-26T09:12:33.656Z,3.13
2017-11-26T09:15:02.524Z,3.30
2017-11-26T09:17:31.370Z,3.10
2017-11-26T09:20:00.240Z,2.60
2017-11-26T09:22:29.090Z,3.00
2017-11-26T09:24:57.987Z,3.30
2017-11-26T09:27:26.843Z,3.10
2017-11-26T09:29:55.727Z,3.30
2017-11-26T09:32:24.586Z,2.50
2017-11-26T09:34:53.462Z,3.60
2017-11-26T09:37:22.324Z,3.10
2017-11-26T09:39:51.179Z,3.50
2017-11-26T09:42:20.058Z,2.90
2017-11-26T09:44:48.910Z,3.40
2017-11-26T09:47:17.801Z,3.20
2017-11-26T09:49:46.645Z,2.87
2017-11-26T09:52:15.492Z,2.57
2017-11-26T09:54:44.358Z,2.90
2017-11-26T09:57:13.203Z,2.70
2017-11-26T09:59:42.073Z,3.00
2017-11-26T10:02:10.913Z,3.13
2017-11-26T10:04:39.768Z,2.40
2017-11-26T10:07:08.611Z,2.67
2017-11-26T10:09:37.471Z,3.00
2017-11-26T10:12:06.324Z,3.40
2017-11-26T10:14:35.265Z,2.80
2017-11-26T10:17:04.110Z,2.50
2017-11-26T10:19:32.954Z,2.83
2017-11-26T10:22:01.814Z,3.20
2017-11-26T10:24:30.668Z,3.27
2017-11-26T10:26:59.524Z,3.47
2017-11-26T10:29:28.366Z,2.63
2017-11-26T10:31:57.236Z,3.10
2017-11-26T10:34:26.097Z,3.03
2017-11-26T10:36:55.073Z,2.70
2017-11-26T10:39:23.923Z,2.83
2017-11-26T10:41:52.771Z,3.03
2017-11-26T10:44:21.642Z,3.10
2017-11-26T10:46:50.494Z,3.20
2017-11-26T10:49:19.346Z,4.20
2017-11-26T10:51:48.218Z,3.37
2017-11-26T10:54:17.088Z,3.30
2017-11-26T10:56:45.951Z,3.00
2017-11-26T10:59:14.840Z,2.10
2017-11-26T11:01:43.701Z,2.50
2017-11-26T11:04:12.559Z,2.13
2017-11-26T11:06:41.443Z,2.83
2017-11-26T11:09:10.318Z,2.50
2017-11-26T11:11:39.177Z,2.60
2017-11-26T11:14:08.054Z,2.17
2017-11-26T11:16:36.918Z,2.60
2017-11-26T11:19:05.788Z,2.40
2017-11-26T11:21:34.700Z,2.60
2017-11-26T11:24:03.560Z,2.43
2017-11-26T11:26:32.472Z,2.57
2017-11-26T11:29:01.315Z,2.30
2017-11-26T11:31:30.190Z,2.17
2017-11-26T11:33:59.045Z,2.03
2017-11-26T11:36:28.016Z,1.93
2017-11-26T11:38:56.924Z,1.80
2017-11-26T11:41:25.797Z,2.33
2017-11-26T11:43:54.658Z,2.07
2017-11-26T11:46:23.530Z,1.93
2017-11-26T11:48:52.448Z,1.97
2017-11-26T11:51:21.331Z,2.43
2017-11-26T11:53:50.180Z,1.60
2017-11-26T11:56:19.233Z,1.70
2017-11-26T11:58:48.096Z,2.07
2017-11-26T12:01:16.947Z,2.00
2017-11-26T12:03:45.815Z,1.90
2017-11-26T12:06:14.671Z,1.80
2017-11-26T12:08:43.527Z,1.60
2017-11-26T12:11:12.368Z,1.80
2017-11-26T12:13:41.230Z,1.80
2017-11-26T12:16:10.074Z,1.83
2017-11-26T12:18:38.959Z,1.87
2017-11-26T12:21:07.828Z,2.30
2017-11-26T12:23:36.678Z,2.13
2017-11-26T12:26:05.567Z,2.40
2017-11-26T12:28:34.408Z,1.93
2017-11-26T12:31:03.283Z,2.63
2017-11-26T12:33:32.157Z,2.93
2017-11-26T12:36:01.030Z,2.13
2017-11-26T12:38:29.896Z,2.33
2017-11-26T12:40:58.810Z,2.77
2017-11-26T12:43:27.666Z,2.73
2017-11-26T12:45:56.503Z,3.03
2017-11-26T12:48:25.381Z,3.30
2017-11-26T12:50:54.231Z,3.47
2017-11-26T12:53:23.124Z,3.57
2017-11-26T12:55:52.011Z,4.10
2017-11-26T12:58:20.883Z,3.20
2017-11-26T13:00:49.768Z,3.60
2017-11-26T13:03:18.671Z,3.93
2017-11-26T13:05:47.517Z,3.20
2017-11-26T13:08:16.411Z,2.77
2017-11-26T13:10:45.294Z,3.10
2017-11-26T13:13:14.143Z,3.30
2017-11-26T13:15:43.033Z,2.60
2017-11-26T13:18:11.883Z,3.13
2017-11-26T13:20:40.775Z,8.20
2017-11-26T13:23:09.614Z,2.20
2017-11-26T13:25:38.472Z,1.93
2017-11-26T13:28:07.371Z,1.97
2017-11-26T13:30:36.215Z,1.73
2017-11-26T13:33:05.078Z,1.80
2017-11-26T13:35:33.965Z,2.30
2017-11-26T13:38:02.899Z,1.77
2017-11-26T13:40:31.764Z,1.87
2017-11-26T13:43:00.623Z,2.00
2017-11-26T13:45:29.504Z,2.40
2017-11-26T13:47:58.346Z,1.73
2017-11-26T13:50:27.202Z,1.83
2017-11-26T13:52:56.047Z,2.23
2017-11-26T13:55:25.038Z,2.23
2017-11-26T13:57:53.885Z,2.67
2017-11-26T14:00:23.561Z,1.40
2017-11-26T14:02:52.477Z,1.73
2017-11-26T14:05:21.331Z,1.93
2017-11-26T14:07:50.199Z,2.50
2017-11-26T14:10:19.078Z,1.83
2017-11-26T14:12:47.975Z,1.87
2017-11-26T14:15:16.848Z,2.50
2017-11-26T14:17:45.714Z,1.73
2017-11-26T14:20:14.587Z,1.60
2017-11-26T14:22:43.434Z,2.10
2017-11-26T14:25:12.344Z,2.50
2017-11-26T14:27:41.193Z,1.63
2017-11-26T14:30:10.069Z,2.00
2017-11-26T14:32:38.928Z,2.73
2017-11-26T14:35:07.772Z,1.83
2017-11-26T14:37:36.692Z,2.30
2017-11-26T14:40:05.562Z,2.10
2017-11-26T14:42:34.434Z,2.20
2017-11-26T14:45:03.305Z,1.80
2017-11-26T14:47:32.155Z,1.80
2017-11-26T14:50:01.019Z,1.80
2017-11-26T14:52:29.871Z,2.10
2017-11-26T14:54:58.747Z,2.20
2017-11-26T14:57:27.615Z,1.87
2017-11-26T14:59:56.468Z,2.07
2017-11-26T15:02:25.348Z,2.20
2017-11-26T15:04:54.264Z,4.40
2017-11-26T15:07:23.145Z,4.23
2017-11-26T15:09:51.989Z,4.07
2017-11-26T15:12:20.870Z,3.50
2017-11-26T15:14:49.786Z,2.90
2017-11-26T15:17:18.707Z,2.80
2017-11-26T15:19:47.574Z,2.70
2017-11-26T15:22:16.435Z,2.20
2017-11-26T15:24:45.308Z,2.47
2017-11-26T15:27:14.211Z,2.80
2017-11-26T15:29:43.225Z,2.40
2017-11-26T15:32:12.196Z,2.90
2017-11-26T15:34:41.067Z,2.70
2017-11-26T15:37:10.484Z,3.73
2017-11-26T15:39:39.490Z,2.60
2017-11-26T15:42:08.436Z,2.90
2017-11-26T15:44:37.406Z,2.70
2017-11-26T15:47:06.287Z,2.93
2017-11-26T15:49:35.486Z,3.20
2017-11-26T15:52:04.366Z,3.00
2017-11-26T15:54:33.921Z,2.70
2017-11-26T15:57:02.768Z,2.60
2017-11-26T15:59:31.713Z,3.00
2017-11-26T16:02:00.733Z,2.67
2017-11-26T16:04:29.601Z,2.90
2017-11-26T16:06:58.445Z,4.70
2017-11-26T16:09:27.314Z,2.73
2017-11-26T16:11:56.208Z,3.20
2017-11-26T16:14:25.309Z,2.37
2017-11-26T16:16:54.230Z,2.13
2017-11-26T16:19:23.107Z,2.30
2017-11-26T16:21:51.982Z,2.70
2017-11-26T16:24:20.924Z,2.30
2017-11-26T16:26:50.597Z,2.50
2017-11-26T16:29:19.458Z,2.87
2017-11-26T16:31:48.342Z,2.77
2017-11-26T16:34:17.465Z,2.60
2017-11-26T16:36:46.361Z,2.93
2017-11-26T16:39:15.242Z,2.70
2017-11-26T16:41:44.118Z,2.23
2017-11-26T16:44:13.006Z,2.33
2017-11-26T16:46:41.853Z,2.30
2017-11-26T16:49:10.766Z,2.40
2017-11-26T16:51:39.664Z,3.13
2017-11-26T16:54:08.531Z,2.43
2017-11-26T16:56:37.514Z,2.50
2017-11-26T16:59:06.396Z,2.37
2017-11-26T17:01:35.269Z,3.17
2017-11-26T17:04:04.127Z,3.50
2017-11-26T17:06:33.035Z,4.50
2017-11-26T17:09:01.923Z,7.07
2017-11-26T17:11:30.924Z,4.50
2017-11-26T17:13:59.809Z,15.83
2017-11-26T17:16:28.672Z,4.17
2017-11-26T17:18:58.907Z,14.33
2017-11-26T17:21:27.756Z,4.23
2017-11-26T17:23:56.648Z,3.03
2017-11-26T17:26:25.507Z,3.57
2017-11-26T17:28:54.363Z,3.10
2017-11-26T17:31:23.234Z,2.80
2017-11-26T17:33:52.075Z,3.10
2017-11-26T17:36:20.936Z,3.10
2017-11-26T17:38:49.778Z,4.90
2017-11-26T17:41:18.946Z,8.03
2017-11-26T17:43:47.793Z,3.57
2017-11-26T17:46:16.655Z,3.77
2017-11-26T17:48:45.536Z,4.30
2017-11-26T17:51:14.383Z,3.50
2017-11-26T17:53:43.248Z,3.20
2017-11-26T17:56:12.108Z,3.23
2017-11-26T17:58:40.975Z,3.40
2017-11-26T18:01:09.831Z,4.07
2017-11-26T18:03:38.718Z,3.70
2017-11-26T18:06:07.568Z,4.30
2017-11-26T18:08:36.439Z,3.60
2017-11-26T18:11:05.303Z,4.00
2017-11-26T18:13:34.144Z,3.50
2017-11-26T18:16:03.003Z,3.60
2017-11-26T18:18:31.854Z,3.77
2017-11-26T18:21:00.727Z,3.30
2017-11-26T18:23:29.580Z,3.50
2017-11-26T18:25:58.503Z,3.10
2017-11-26T18:28:27.341Z,3.90
2017-11-26T18:30:56.204Z,2.90
2017-11-26T18:33:25.083Z,2.80
2017-11-26T18:35:53.936Z,4.07
2017-11-26T18:38:22.793Z,3.10
2017-11-26T18:40:51.681Z,3.43
2017-11-26T18:43:20.545Z,2.70
2017-11-26T18:45:49.395Z,2.70
2017-11-26T18:48:18.300Z,3.23
2017-11-26T18:50:47.152Z,3.40
2017-11-26T18:53:16.038Z,3.20
2017-11-26T18:55:44.929Z,3.50
2017-11-26T18:58:13.798Z,3.70
2017-11-26T19:00:42.654Z,3.33
2017-11-26T19:03:11.505Z,3.10
2017-11-26T19:05:40.372Z,3.47
2017-11-26T19:08:09.214Z,3.10
2017-11-26T19:10:38.116Z,2.70
2017-11-26T19:13:06.964Z,3.67
2017-11-26T19:15:35.819Z,2.63
2017-11-26T19:18:04.679Z,3.30
2017-11-26T19:20:33.537Z,3.77
2017-11-26T19:23:02.424Z,7.70
2017-11-26T19:25:31.285Z,4.23
2017-11-26T19:28:00.183Z,3.90
2017-11-26T19:30:29.065Z,3.27
2017-11-26T19:32:57.948Z,3.83
2017-11-26T19:35:27.684Z,3.30
2017-11-26T19:37:56.530Z,3.60
2017-11-26T19:40:25.420Z,3.80
2017-11-26T19:42:54.275Z,3.63
2017-11-26T19:45:23.167Z,3.50
2017-11-26T19:47:52.050Z,3.07
2017-11-26T19:50:20.956Z,3.27
2017-11-26T19:52:49.826Z,3.10
2017-11-26T19:55:18.688Z,4.13
2017-11-26T19:57:47.563Z,3.20
2017-11-26T20:00:16.416Z,3.50
2017-11-26T20:02:45.279Z,3.07
2017-11-26T20:05:14.124Z,3.90
2017-11-26T20:07:43.023Z,3.93
2017-11-26T20:10:11.872Z,3.30
2017-11-26T20:12:40.746Z,3.10
2017-11-26T20:15:09.608Z,3.90
2017-11-26T20:17:38.485Z,4.00
2017-11-26T20:20:07.403Z,3.73
2017-11-26T20:22:36.310Z,3.10
2017-11-26T20:25:05.298Z,3.07
2017-11-26T20:27:34.178Z,2.97
2017-11-26T20:30:03.051Z,3.10
2017-11-26T20:32:31.917Z,3.30
2017-11-26T20:35:00.780Z,3.20
2017-11-26T20:37:29.645Z,3.93
2017-11-26T20:39:58.567Z,5.53
2017-11-26T20:42:27.504Z,2.73
2017-11-26T20:44:56.339Z,3.90
2017-11-26T20:47:25.216Z,3.33
2017-11-26T20:49:54.055Z,2.90
2017-11-26T20:52:22.948Z,3.30
2017-11-26T20:54:51.831Z,3.63
2017-11-26T20:57:20.707Z,3.13
2017-11-26T20:59:49.607Z,3.10
2017-11-26T21:02:18.515Z,3.10
2017-11-26T21:04:47.429Z,3.30
2017-11-26T21:07:16.282Z,3.13
2017-11-26T21:09:45.172Z,3.10
2017-11-26T21:12:14.103Z,3.20
2017-11-26T21:14:42.966Z,3.10
2017-11-26T21:17:11.845Z,2.50
2017-11-26T21:19:40.714Z,2.90
2017-11-26T21:22:09.631Z,2.70
2017-11-26T21:24:38.498Z,3.40
2017-11-26T21:27:07.606Z,2.87
2017-11-26T21:29:36.447Z,2.80
2017-11-26T21:32:05.288Z,2.57
2017-11-26T21:34:34.171Z,2.63
2017-11-26T21:37:03.078Z,3.97
2017-11-26T21:39:31.947Z,4.33
2017-11-26T21:42:00.795Z,3.23
2017-11-26T21:44:29.725Z,5.47
2017-11-26T21:46:58.690Z,3.00
2017-11-26T21:49:27.929Z,3.70
2017-11-26T21:51:56.821Z,3.13
2017-11-26T21:54:25.671Z,2.90
2017-11-26T21:56:54.534Z,3.00
2017-11-26T21:59:23.762Z,3.20
2017-11-26T22:01:52.914Z,3.87
2017-11-26T22:04:22.401Z,3.60
2017-11-26T22:06:51.252Z,3.30
2017-11-26T22:09:20.150Z,3.80
2017-11-26T22:11:49.012Z,3.87
2017-11-26T22:14:17.921Z,3.37
2017-11-26T22:16:46.776Z,3.30
2017-11-26T22:19:15.684Z,2.90
2017-11-26T22:21:44.534Z,3.37
2017-11-26T22:24:13.376Z,3.63
2017-11-26T22:26:42.257Z,3.20
2017-11-26T22:29:11.138Z,3.97
2017-11-26T22:31:39.994Z,3.43
2017-11-26T22:34:08.856Z,3.43
2017-11-26T22:36:37.780Z,3.20
2017-11-26T22:39:06.646Z,3.10
2017-11-26T22:41:35.567Z,3.20
2017-11-26T22:44:04.404Z,3.27
2017-11-26T22:46:33.303Z,2.93
2017-11-26T22:49:02.154Z,3.93
2017-11-26T22:51:30.999Z,4.20
2017-11-26T22:53:59.877Z,3.10
2017-11-26T22:56:28.719Z,3.20
2017-11-26T22:58:57.582Z,3.33
2017-11-26T23:01:26.457Z,3.40
2017-11-26T23:03:55.311Z,3.73
2017-11-26T23:06:24.156Z,3.73
2017-11-26T23:08:53.020Z,3.77
2017-11-26T23:11:21.863Z,3.93
2017-11-26T23:13:50.730Z,3.60
2017-11-26T23:16:19.576Z,3.43
2017-11-26T23:18:48.455Z,3.87
2017-11-26T23:21:17.333Z,4.50
2017-11-26T23:23:46.235Z,4.40
2017-11-26T23:26:15.116Z,4.20
2017-11-26T23:28:43.976Z,4.80
2017-11-26T23:31:12.845Z,3.70
2017-11-26T23:33:41.723Z,4.40
2017-11-26T23:36:10.625Z,3.80
2017-11-26T23:38:39.476Z,3.87
2017-11-26T23:41:08.399Z,4.10
2017-11-26T23:43:37.259Z,4.00
2017-11-26T23:46:06.166Z,4.47
2017-11-26T23:48:35.040Z,4.80
2017-11-26T23:51:03.905Z,3.73
2017-11-26T23:53:32.794Z,4.20
2017-11-26T23:56:01.635Z,4.73
2017-11-26T23:58:30.513Z,3.90
